Time;durP1;ratioP1;P1;durP2;ratioP2;P2;SDS_P1;SDS_P2;PMS_P1;PMS_P2;Temp;Humidity;BMP_temperature;BMP_pressure;BME280_temperature;BME280_humidity;BME280_pressure;Samples;Min_cycle;Max_cycle;Signal;HPM_P1;HPM_P2
2021/09/11 00:00:05;;;;;;;60.03;34.40;;;17.30;99.90;;;;;;4191640;28;20123;-71
2021/09/11 00:02:05;;;;;;;54.70;32.35;;;17.30;99.90;;;;;;4194945;28;20050;-71
2021/09/11 00:04:06;;;;;;;60.65;33.30;;;17.30;99.90;;;;;;4190510;28;20112;-71
2021/09/11 00:06:06;;;;;;;50.20;31.73;;;17.30;99.90;;;;;;4197222;28;20036;-71
2021/09/11 00:08:07;;;;;;;57.55;31.40;;;17.20;99.90;;;;;;4188741;28;20061;-71
2021/09/11 00:10:10;;;;;;;44.85;28.30;;;17.30;99.90;;;;;;4197229;28;20048;-72
2021/09/11 00:12:11;;;;;;;42.35;26.67;;;17.20;99.90;;;;;;4193111;28;20071;-71
2021/09/11 00:14:11;;;;;;;47.92;28.42;;;17.30;99.90;;;;;;4195052;28;20033;-71
2021/09/11 00:16:12;;;;;;;38.38;25.17;;;17.30;99.90;;;;;;4196566;28;20087;-70
2021/09/11 00:18:13;;;;;;;42.75;26.58;;;17.10;99.90;;;;;;4193850;28;20039;-71
2021/09/11 00:20:14;;;;;;;38.63;26.45;;;17.00;99.90;;;;;;4193264;28;20529;-71
2021/09/11 00:22:14;;;;;;;43.65;25.98;;;17.00;99.90;;;;;;4197240;28;20571;-72
2021/09/11 00:24:15;;;;;;;43.22;25.40;;;16.90;99.90;;;;;;4185750;28;20112;-71
2021/09/11 00:26:17;;;;;;;42.53;25.33;;;16.80;99.90;;;;;;4195764;28;20142;-70
2021/09/11 00:28:17;;;;;;;40.72;25.33;;;16.80;99.90;;;;;;4193840;28;20035;-70
2021/09/11 00:30:18;;;;;;;42.92;27.13;;;16.70;99.90;;;;;;4195288;28;20044;-70
2021/09/11 00:32:19;;;;;;;50.85;28.63;;;16.60;99.90;;;;;;4194782;28;20052;-71
2021/09/11 00:34:20;;;;;;;48.00;28.13;;;16.50;99.90;;;;;;4195573;28;20124;-71
2021/09/11 00:36:21;;;;;;;45.22;28.83;;;16.50;99.90;;;;;;4194025;28;20043;-70
2021/09/11 00:38:21;;;;;;;50.95;27.63;;;16.40;99.90;;;;;;4196225;28;20036;-70
2021/09/11 00:40:22;;;;;;;54.55;29.15;;;16.40;99.90;;;;;;4193194;28;20045;-71
2021/09/11 00:42:23;;;;;;;52.95;30.80;;;16.50;99.90;;;;;;4197649;28;20379;-71
2021/09/11 00:44:24;;;;;;;54.53;30.48;;;16.50;99.90;;;;;;4192953;28;20037;-71
2021/09/11 00:46:24;;;;;;;48.42;28.52;;;16.40;99.90;;;;;;4197007;28;20504;-71
2021/09/11 00:48:25;;;;;;;51.72;29.98;;;16.40;99.90;;;;;;4193723;28;20396;-71
2021/09/11 00:50:26;;;;;;;53.17;30.35;;;16.40;99.90;;;;;;4196538;28;20151;-71
2021/09/11 00:52:26;;;;;;;50.22;28.88;;;16.40;99.90;;;;;;4193678;28;20392;-72
2021/09/11 00:54:27;;;;;;;54.90;29.33;;;16.40;99.90;;;;;;4196318;28;20440;-71
2021/09/11 00:56:29;;;;;;;51.45;28.45;;;16.30;99.90;;;;;;4193060;28;20067;-70
2021/09/11 00:58:30;;;;;;;56.83;29.33;;;16.20;99.90;;;;;;4195025;28;20143;-70
2021/09/11 01:00:30;;;;;;;60.53;29.80;;;16.20;99.90;;;;;;4193768;28;20047;-70
2021/09/11 01:02:31;;;;;;;54.00;29.38;;;16.10;99.90;;;;;;4196667;28;20090;-71
2021/09/11 01:04:32;;;;;;;51.75;29.00;;;16.10;99.90;;;;;;4194007;28;20043;-71
2021/09/11 01:06:33;;;;;;;53.40;28.02;;;16.10;99.90;;;;;;4195808;28;20063;-71
2021/09/11 01:08:34;;;;;;;57.22;28.55;;;16.10;99.90;;;;;;4193660;28;20479;-71
2021/09/11 01:10:37;;;;;;;54.58;28.02;;;16.10;99.90;;;;;;4195000;28;20039;-70
2021/09/11 01:12:39;;;;;;;49.05;26.33;;;16.00;99.90;;;;;;4190293;28;20377;-70
2021/09/11 01:14:39;;;;;;;55.25;27.95;;;16.00;99.90;;;;;;4196303;28;20040;-70
2021/09/11 01:16:40;;;;;;;58.92;28.77;;;16.00;99.90;;;;;;4191121;28;20518;-70
2021/09/11 01:18:40;;;;;;;51.38;28.15;;;16.00;99.90;;;;;;4196041;28;20090;-70
2021/09/11 01:20:41;;;;;;;59.50;28.33;;;16.00;99.90;;;;;;4193323;28;20036;-71
2021/09/11 01:22:42;;;;;;;56.65;30.13;;;16.00;99.90;;;;;;4194835;28;20700;-71
2021/09/11 01:24:53;;;;;;;50.25;28.75;;;16.00;99.90;;;;;;4189348;28;20032;-71
2021/09/11 01:26:53;;;;;;;56.42;28.85;;;16.00;99.90;;;;;;4196406;28;20037;-70
2021/09/11 01:28:54;;;;;;;58.35;28.23;;;16.00;99.90;;;;;;4188728;28;20381;-71
2021/09/11 01:30:55;;;;;;;56.15;31.33;;;16.00;99.90;;;;;;4195095;28;20036;-70
2021/09/11 01:32:56;;;;;;;52.47;30.25;;;15.90;99.90;;;;;;4188537;28;20080;-70
2021/09/11 01:34:56;;;;;;;60.28;30.45;;;15.90;99.90;;;;;;4193315;28;20067;-70
2021/09/11 01:36:57;;;;;;;53.35;29.23;;;15.90;99.90;;;;;;4194597;28;20024;-71
2021/09/11 01:38:58;;;;;;;50.75;27.27;;;15.80;99.90;;;;;;4194651;28;20025;-71
2021/09/11 01:40:58;;;;;;;62.08;30.48;;;15.80;99.90;;;;;;4188767;28;20562;-71
2021/09/11 01:42:59;;;;;;;56.00;27.77;;;15.80;99.90;;;;;;4193419;28;20064;-70
2021/09/11 01:45:05;;;;;;;51.58;26.90;;;15.80;99.90;;;;;;4191212;28;20086;-71
2021/09/11 01:47:06;;;;;;;44.83;23.80;;;15.90;99.90;;;;;;4187950;28;20029;-71
2021/09/11 01:49:07;;;;;;;46.17;25.42;;;15.90;99.90;;;;;;4192848;28;20090;-70
2021/09/11 01:51:08;;;;;;;46.15;23.95;;;15.90;99.90;;;;;;4194168;28;20040;-71
2021/09/11 01:53:08;;;;;;;48.25;25.52;;;15.90;99.90;;;;;;4191679;28;20381;-71
2021/09/11 01:55:11;;;;;;;49.13;26.15;;;15.80;99.90;;;;;;4192896;28;20044;-70
2021/09/11 01:57:12;;;;;;;;;;;;;;;;;;4194364;28;20039;-70
2021/09/11 01:59:13;;;;;;;48.10;22.58;;;15.70;99.90;;;;;;4191955;28;19955;-70
2021/09/11 02:01:14;;;;;;;44.80;23.48;;;15.70;99.90;;;;;;4195383;28;20044;-71
2021/09/11 02:03:14;;;;;;;53.00;25.25;;;15.60;99.90;;;;;;4192702;28;20313;-71
2021/09/11 02:05:15;;;;;;;39.05;22.40;;;15.60;99.90;;;;;;4191996;28;20044;-71
2021/09/11 02:07:16;;;;;;;46.22;22.77;;;15.60;99.90;;;;;;4193877;28;20029;-70
2021/09/11 02:09:16;;;;;;;44.22;23.95;;;15.60;99.90;;;;;;4194043;28;20033;-70
2021/09/11 02:11:17;;;;;;;51.00;24.85;;;15.60;99.90;;;;;;4193405;28;20523;-71
2021/09/11 02:13:18;;;;;;;49.10;23.42;;;15.50;99.90;;;;;;4193083;28;20119;-71
2021/09/11 02:15:18;;;;;;;46.13;24.75;;;15.50;99.90;;;;;;4191874;28;20031;-71
2021/09/11 02:17:19;;;;;;;45.13;25.08;;;15.40;99.90;;;;;;4192764;28;20025;-69
2021/09/11 02:19:20;;;;;;;44.83;22.83;;;15.40;99.90;;;;;;4192026;28;20098;-71
2021/09/11 02:21:20;;;;;;;44.20;24.25;;;15.40;99.90;;;;;;4193046;28;20062;-69
2021/09/11 02:23:21;;;;;;;54.55;27.80;;;15.30;99.90;;;;;;4193186;28;20044;-71
2021/09/11 02:25:22;;;;;;;58.55;27.30;;;15.30;99.90;;;;;;4191356;28;20532;-71
2021/09/11 02:27:22;;;;;;;55.85;26.17;;;15.30;99.90;;;;;;4191329;28;20083;-71
2021/09/11 02:29:24;;;;;;;56.67;28.48;;;15.20;99.90;;;;;;4194070;28;20035;-71
2021/09/11 02:31:24;;;;;;;55.45;28.73;;;15.20;99.90;;;;;;4193176;28;20042;-71
2021/09/11 02:33:25;;;;;;;53.75;27.45;;;15.20;99.90;;;;;;4192732;28;20458;-71
2021/09/11 02:35:25;;;;;;;66.25;29.98;;;15.20;99.90;;;;;;4191578;28;20039;-70
2021/09/11 02:37:26;;;;;;;61.63;28.45;;;15.20;99.90;;;;;;4196304;28;20055;-71
2021/09/11 02:39:27;;;;;;;57.95;28.23;;;15.20;99.90;;;;;;4194276;28;20045;-70
2021/09/11 02:41:28;;;;;;;63.60;29.25;;;15.20;99.90;;;;;;4192547;28;20032;-70
2021/09/11 02:43:28;;;;;;;70.07;30.85;;;15.20;99.90;;;;;;4191326;28;20451;-70
2021/09/11 02:45:29;;;;;;;66.10;30.17;;;15.30;99.90;;;;;;4195592;28;20565;-70
2021/09/11 02:47:30;;;;;;;68.82;29.75;;;15.30;99.90;;;;;;4191423;28;20040;-69
2021/09/11 02:49:30;;;;;;;60.00;29.08;;;15.40;99.90;;;;;;4192567;28;20028;-70
2021/09/11 02:51:31;;;;;;;57.80;28.08;;;15.40;99.90;;;;;;4193746;28;20036;-70
2021/09/11 02:53:32;;;;;;;60.13;28.80;;;15.30;99.90;;;;;;4192671;28;20056;-70
2021/09/11 02:55:33;;;;;;;63.08;29.60;;;15.30;99.90;;;;;;4192741;28;20041;-71
2021/09/11 02:57:33;;;;;;;61.03;26.33;;;15.30;99.90;;;;;;4196114;28;20032;-71
2021/09/11 02:59:34;;;;;;;51.20;26.25;;;15.30;99.90;;;;;;4193409;28;20067;-71
2021/09/11 03:01:34;;;;;;;59.60;27.95;;;15.40;99.90;;;;;;4194416;28;20075;-70
2021/09/11 03:03:37;;;;;;;60.10;27.98;;;15.40;99.90;;;;;;4192036;28;20037;-71
2021/09/11 03:05:38;;;;;;;57.30;26.65;;;15.30;99.90;;;;;;4195819;28;20105;-70
2021/09/11 03:07:39;;;;;;;64.30;28.60;;;15.30;99.90;;;;;;4191677;28;20034;-69
2021/09/11 03:09:39;;;;;;;56.78;27.33;;;15.30;99.90;;;;;;4192831;28;20048;-70
2021/09/11 03:11:40;;;;;;;54.70;27.17;;;15.30;99.90;;;;;;4192525;28;20033;-71
2021/09/11 03:13:42;;;;;;;55.50;26.08;;;15.20;99.90;;;;;;4191716;28;20123;-70
2021/09/11 03:15:43;;;;;;;62.58;27.20;;;15.20;99.90;;;;;;4190224;28;20088;-71
2021/09/11 03:17:43;;;;;;;63.20;26.67;;;15.20;99.90;;;;;;4194506;28;20032;-68
2021/09/11 03:19:44;;;;;;;57.85;26.85;;;15.30;99.90;;;;;;4189852;28;20033;-70
2021/09/11 03:21:44;;;;;;;60.70;27.42;;;15.30;99.90;;;;;;4196059;28;20033;-70
2021/09/11 03:23:45;;;;;;;61.75;28.20;;;15.30;99.90;;;;;;4192113;28;20545;-71
2021/09/11 03:25:46;;;;;;;64.15;26.50;;;15.30;99.90;;;;;;4193041;28;20033;-71
2021/09/11 03:27:46;;;;;;;59.28;26.45;;;15.40;99.90;;;;;;4193337;28;20032;-69
2021/09/11 03:29:47;;;;;;;58.05;28.23;;;15.40;99.90;;;;;;4193077;28;20427;-71
2021/09/11 03:31:48;;;;;;;58.90;26.27;;;15.40;99.90;;;;;;4189821;28;20128;-71
2021/09/11 03:33:48;;;;;;;62.30;27.27;;;15.40;99.90;;;;;;4195647;28;20116;-71
2021/09/11 03:35:49;;;;;;;60.10;27.38;;;15.40;99.90;;;;;;4190139;28;20106;-70
2021/09/11 03:37:53;;;;;;;59.17;27.38;;;15.40;99.90;;;;;;4195816;28;20127;-70
2021/09/11 03:39:54;;;;;;;54.55;27.13;;;15.40;99.90;;;;;;4190883;28;20071;-71
2021/09/11 03:41:55;;;;;;;58.72;26.45;;;15.40;99.90;;;;;;4195728;28;20037;-70
2021/09/11 03:43:56;;;;;;;56.75;27.85;;;15.40;99.90;;;;;;4190971;28;20048;-71
2021/09/11 03:45:57;;;;;;;59.10;28.27;;;15.50;99.90;;;;;;4193532;28;20036;-71
2021/09/11 03:47:58;;;;;;;57.50;27.52;;;15.50;99.90;;;;;;4189126;28;20164;-71
2021/09/11 03:49:58;;;;;;;66.43;29.52;;;15.50;99.90;;;;;;4193714;28;20399;-71
2021/09/11 03:51:59;;;;;;;64.63;28.65;;;15.50;99.90;;;;;;4192006;28;20057;-71
2021/09/11 03:54:00;;;;;;;61.78;26.38;;;15.60;99.90;;;;;;4193670;28;20028;-71
2021/09/11 03:56:01;;;;;;;63.38;30.05;;;15.70;99.90;;;;;;4191850;28;20032;-72
2021/09/11 03:58:02;;;;;;;63.10;26.73;;;15.70;99.90;;;;;;4192632;28;20037;-70
2021/09/11 04:00:03;;;;;;;60.25;27.83;;;15.70;99.90;;;;;;4195897;28;20045;-71
2021/09/11 04:02:04;;;;;;;58.17;26.00;;;15.70;99.90;;;;;;4197185;28;20125;-70
2021/09/11 04:04:05;;;;;;;55.42;28.60;;;15.80;99.90;;;;;;4195940;28;20345;-71
2021/09/11 04:06:05;;;;;;;64.35;30.10;;;15.70;99.90;;;;;;4197572;28;20055;-73
2021/09/11 04:08:06;;;;;;;64.80;30.60;;;15.70;99.90;;;;;;4193487;28;20067;-70
2021/09/11 04:10:07;;;;;;;61.83;29.05;;;15.70;99.90;;;;;;4194895;28;20060;-70
2021/09/11 04:12:08;;;;;;;63.42;30.90;;;15.80;99.90;;;;;;4192821;28;20459;-70
2021/09/11 04:14:08;;;;;;;62.72;33.17;;;15.80;99.90;;;;;;4198449;28;20040;-71
2021/09/11 04:16:09;;;;;;;66.05;31.85;;;15.70;99.90;;;;;;4195338;28;20116;-70
2021/09/11 04:18:10;;;;;;;75.45;32.45;;;15.70;99.90;;;;;;4196171;28;20693;-71
2021/09/11 04:20:11;;;;;;;67.32;31.55;;;15.70;99.90;;;;;;4191654;28;20033;-71
2021/09/11 04:22:12;;;;;;;68.53;32.60;;;15.70;99.90;;;;;;4198057;28;20029;-71
2021/09/11 04:24:13;;;;;;;69.80;32.67;;;15.70;99.90;;;;;;4192542;28;20122;-69
2021/09/11 04:26:13;;;;;;;66.70;34.30;;;15.70;99.90;;;;;;4195862;28;20056;-70
2021/09/11 04:28:14;;;;;;;74.22;32.92;;;15.60;99.90;;;;;;4191803;28;20766;-71
2021/09/11 04:30:15;;;;;;;73.85;34.30;;;15.60;99.90;;;;;;4195348;28;20025;-70
2021/09/11 04:32:15;;;;;;;79.75;34.25;;;15.60;99.90;;;;;;4193173;28;20120;-70
2021/09/11 04:34:16;;;;;;;75.50;36.40;;;15.70;99.90;;;;;;4193946;28;20443;-71
2021/09/11 04:36:17;;;;;;;74.38;34.90;;;15.70;99.90;;;;;;4195512;28;20077;-70
2021/09/11 04:38:17;;;;;;;78.28;36.70;;;15.70;99.90;;;;;;4197662;28;20496;-70
2021/09/11 04:40:18;;;;;;;71.65;34.17;;;15.70;99.90;;;;;;4194316;28;20467;-71
2021/09/11 04:42:18;;;;;;;74.82;36.95;;;15.80;99.90;;;;;;4194152;28;20052;-70
2021/09/11 04:44:19;;;;;;;64.68;34.17;;;15.90;99.90;;;;;;4193851;28;20063;-70
2021/09/11 04:46:20;;;;;;;64.43;35.55;;;15.90;99.90;;;;;;4193876;28;20082;-70
2021/09/11 04:48:21;;;;;;;72.55;34.40;;;15.90;99.90;;;;;;4193299;28;20071;-70
2021/09/11 04:50:21;;;;;;;63.83;33.58;;;15.80;99.90;;;;;;4193969;28;20044;-70
2021/09/11 04:52:22;;;;;;;68.55;34.53;;;15.80;99.90;;;;;;4193827;28;20024;-69
2021/09/11 04:54:22;;;;;;;62.78;34.00;;;15.80;99.90;;;;;;4197734;28;20437;-70
2021/09/11 04:56:23;;;;;;;79.38;36.63;;;15.80;99.90;;;;;;4194975;28;20171;-70
2021/09/11 04:58:24;;;;;;;65.75;33.17;;;15.80;99.90;;;;;;4192853;28;20040;-70
2021/09/11 05:00:24;;;;;;;70.80;32.85;;;15.80;99.90;;;;;;4193966;28;20032;-71
2021/09/11 05:02:25;;;;;;;59.95;33.38;;;15.90;99.90;;;;;;4198089;28;20032;-69
2021/09/11 05:04:26;;;;;;;61.78;32.25;;;15.80;99.90;;;;;;4192267;28;20040;-69
2021/09/11 05:06:26;;;;;;;63.42;33.67;;;15.80;99.90;;;;;;4192094;28;20052;-69
2021/09/11 05:08:27;;;;;;;55.67;30.90;;;15.80;99.90;;;;;;4193901;28;20029;-70
2021/09/11 05:10:28;;;;;;;54.83;30.90;;;15.80;99.90;;;;;;4197215;28;20086;-70
2021/09/11 05:12:28;;;;;;;58.10;31.50;;;15.80;99.90;;;;;;4193344;28;20087;-70
2021/09/11 05:14:30;;;;;;;52.63;26.95;;;15.90;99.90;;;;;;4197198;28;20025;-69
2021/09/11 05:16:31;;;;;;;54.97;31.55;;;16.00;99.90;;;;;;4190965;28;20084;-70
2021/09/11 05:18:32;;;;;;;59.05;32.05;;;16.00;99.90;;;;;;4191028;28;20119;-70
2021/09/11 05:20:33;;;;;;;56.20;30.17;;;16.00;99.90;;;;;;4192528;28;20037;-69
2021/09/11 05:22:33;;;;;;;44.47;23.42;;;16.00;99.90;;;;;;4197232;28;20028;-71
2021/09/11 05:24:34;;;;;;;53.22;29.55;;;16.10;99.90;;;;;;4194824;28;20040;-70
2021/09/11 05:26:35;;;;;;;49.15;29.52;;;16.10;99.90;;;;;;4197032;28;20166;-70
2021/09/11 05:28:35;;;;;;;50.30;27.60;;;16.20;99.90;;;;;;4192149;28;20041;-71
2021/09/11 05:30:36;;;;;;;51.17;29.40;;;16.20;99.90;;;;;;4196830;28;20384;-72
2021/09/11 05:32:37;;;;;;;50.80;29.08;;;16.20;99.90;;;;;;4192309;28;20083;-71
2021/09/11 05:34:37;;;;;;;47.58;28.05;;;16.20;99.90;;;;;;4196918;28;20078;-70
2021/09/11 05:36:38;;;;;;;50.25;29.38;;;16.20;99.90;;;;;;4192856;28;20048;-70
2021/09/11 05:38:39;;;;;;;52.20;27.70;;;16.20;99.90;;;;;;4194076;28;20113;-71
2021/09/11 05:40:39;;;;;;;48.15;27.45;;;16.20;99.90;;;;;;4194707;28;20487;-71
2021/09/11 05:42:40;;;;;;;52.40;26.80;;;16.20;99.90;;;;;;4193459;28;20036;-71
2021/09/11 05:44:41;;;;;;;47.70;26.90;;;16.20;99.90;;;;;;4192704;28;20041;-71
2021/09/11 05:46:41;;;;;;;46.58;26.00;;;16.30;99.90;;;;;;4185825;28;20029;-70
2021/09/11 05:48:42;;;;;;;44.72;24.65;;;16.30;99.90;;;;;;4190686;28;20037;-70
2021/09/11 05:50:42;;;;;;;41.92;27.75;;;16.30;99.90;;;;;;4189648;28;20036;-70
2021/09/11 05:52:43;;;;;;;44.08;27.02;;;16.30;99.90;;;;;;4190775;28;20469;-71
2021/09/11 05:54:44;;;;;;;40.60;26.70;;;16.30;99.90;;;;;;4191764;28;20029;-69
2021/09/11 05:56:45;;;;;;;45.13;28.23;;;16.30;99.90;;;;;;4192813;28;20036;-71
2021/09/11 05:58:45;;;;;;;42.90;26.85;;;16.30;99.90;;;;;;4189880;28;20420;-68
2021/09/11 06:00:46;;;;;;;44.22;25.67;;;16.30;99.90;;;;;;4190298;28;20059;-68
2021/09/11 06:02:47;;;;;;;37.92;26.55;;;16.30;99.90;;;;;;4192789;28;20042;-71
2021/09/11 06:04:48;;;;;;;40.40;28.00;;;16.30;99.90;;;;;;4191480;28;20029;-71
2021/09/11 06:06:48;;;;;;;41.65;27.55;;;16.40;99.90;;;;;;4183200;28;20559;-68
2021/09/11 06:08:49;;;;;;;37.45;23.85;;;16.50;99.90;;;;;;4191928;28;20029;-68
2021/09/11 06:10:50;;;;;;;34.13;24.98;;;16.50;99.90;;;;;;4191383;28;20037;-69
2021/09/11 06:12:50;;;;;;;37.70;26.55;;;16.70;99.90;;;;;;4190671;28;20029;-70
2021/09/11 06:14:51;;;;;;;36.20;24.38;;;16.70;99.90;;;;;;4193865;28;20074;-70
2021/09/11 06:16:51;;;;;;;39.85;25.95;;;16.80;99.90;;;;;;4193803;28;20132;-70
2021/09/11 06:18:52;;;;;;;37.05;25.58;;;17.00;99.90;;;;;;4185174;28;20369;-71
2021/09/11 06:20:53;;;;;;;39.28;25.70;;;17.00;99.90;;;;;;4189216;28;20036;-69
2021/09/11 06:22:53;;;;;;;31.23;21.85;;;17.10;99.90;;;;;;4181247;28;20488;-70
2021/09/11 06:24:54;;;;;;;29.95;24.23;;;17.20;99.90;;;;;;4188061;28;20112;-70
2021/09/11 06:26:55;;;;;;;30.05;20.88;;;17.30;99.90;;;;;;4187446;28;20021;-70
2021/09/11 06:28:56;;;;;;;29.23;23.75;;;17.30;99.90;;;;;;4188295;28;20510;-69
2021/09/11 06:30:56;;;;;;;29.33;23.17;;;17.40;99.90;;;;;;4186728;28;20033;-71
2021/09/11 06:32:57;;;;;;;30.70;25.35;;;17.50;99.90;;;;;;4190072;28;20031;-71
2021/09/11 06:34:57;;;;;;;33.35;22.60;;;17.60;99.90;;;;;;4191640;28;20021;-70
2021/09/11 06:36:58;;;;;;;31.02;22.80;;;17.70;99.90;;;;;;4191516;28;20051;-69
2021/09/11 06:38:59;;;;;;;28.13;21.15;;;17.70;99.90;;;;;;4194197;28;20029;-69
2021/09/11 06:40:59;;;;;;;28.17;22.25;;;17.80;99.90;;;;;;4190660;28;20063;-69
2021/09/11 06:43:00;;;;;;;25.45;20.40;;;17.80;99.90;;;;;;4193270;28;20119;-70
2021/09/11 06:45:00;;;;;;;32.72;21.75;;;17.90;99.90;;;;;;4189569;28;20049;-70
2021/09/11 06:47:01;;;;;;;33.15;21.60;;;17.90;99.90;;;;;;4193714;28;20037;-69
2021/09/11 06:49:03;;;;;;;21.90;19.17;;;17.80;99.90;;;;;;4191621;28;20033;-70
2021/09/11 06:51:03;;;;;;;27.98;18.67;;;17.80;99.90;;;;;;4193644;28;20034;-70
2021/09/11 06:53:06;;;;;;;25.92;19.92;;;17.80;99.90;;;;;;4192270;28;20056;-69
2021/09/11 06:55:07;;;;;;;22.13;18.08;;;17.80;99.90;;;;;;4195344;28;20392;-70
2021/09/11 06:57:07;;;;;;;23.50;18.48;;;17.70;99.90;;;;;;4190611;28;20029;-70
2021/09/11 06:59:08;;;;;;;24.05;15.43;;;17.70;99.90;;;;;;4191940;28;20091;-70
2021/09/11 07:01:08;;;;;;;24.67;17.20;;;17.80;99.90;;;;;;4189029;28;20381;-70
2021/09/11 07:03:09;;;;;;;23.85;17.02;;;17.70;99.90;;;;;;4193938;28;20037;-70
2021/09/11 07:05:10;;;;;;;23.42;17.58;;;17.70;99.90;;;;;;4188336;28;20044;-69
2021/09/11 07:07:10;;;;;;;24.48;18.48;;;17.60;99.90;;;;;;4192355;28;20035;-68
2021/09/11 07:09:11;;;;;;;22.42;17.92;;;17.50;99.90;;;;;;4206530;28;20036;-69
2021/09/11 07:11:13;;;;;;;20.42;17.65;;;17.40;99.90;;;;;;4193842;28;20033;-71
2021/09/11 07:13:13;;;;;;;22.17;17.73;;;17.40;99.90;;;;;;4188721;28;20116;-70
2021/09/11 07:15:14;;;;;;;22.35;19.58;;;17.40;99.90;;;;;;4194113;28;20037;-69
2021/09/11 07:17:15;;;;;;;29.08;19.63;;;17.50;99.90;;;;;;4187003;28;20084;-70
2021/09/11 07:19:15;;;;;;;27.30;18.23;;;17.60;99.90;;;;;;4193942;28;20025;-71
2021/09/11 07:21:16;;;;;;;19.20;17.15;;;17.70;99.90;;;;;;4189094;28;20033;-70
2021/09/11 07:23:17;;;;;;;21.45;16.90;;;17.80;99.90;;;;;;4193171;28;20083;-70
2021/09/11 07:25:17;;;;;;;21.95;17.67;;;17.90;99.90;;;;;;4187227;28;20033;-70
2021/09/11 07:27:18;;;;;;;20.60;16.60;;;18.00;99.90;;;;;;4184470;28;20024;-70
2021/09/11 07:29:19;;;;;;;22.33;17.55;;;18.00;99.90;;;;;;4192633;28;20037;-69
2021/09/11 07:31:19;;;;;;;21.88;16.88;;;18.10;99.90;;;;;;4191161;28;20020;-71
2021/09/11 07:33:20;;;;;;;24.27;18.88;;;18.10;99.90;;;;;;4187547;28;20132;-70
2021/09/11 07:35:21;;;;;;;27.95;16.65;;;18.20;99.90;;;;;;4185741;28;26247;-70
2021/09/11 07:37:21;;;;;;;20.83;17.35;;;18.20;99.90;;;;;;4189873;28;20548;-70
2021/09/11 07:39:22;;;;;;;28.27;18.48;;;18.20;99.90;;;;;;4185158;28;20384;-69
2021/09/11 07:41:22;;;;;;;21.10;16.30;;;18.20;99.90;;;;;;4189333;28;20055;-70
2021/09/11 07:43:23;;;;;;;21.48;16.17;;;18.30;99.90;;;;;;4182601;28;20036;-69
2021/09/11 07:45:24;;;;;;;20.50;17.10;;;18.40;99.90;;;;;;4188667;28;20052;-70
2021/09/11 07:47:25;;;;;;;19.20;17.08;;;18.50;99.90;;;;;;4186357;28;20346;-70
2021/09/11 07:49:26;;;;;;;19.20;16.20;;;18.50;99.90;;;;;;4192231;28;20033;-71
2021/09/11 07:51:27;;;;;;;21.50;16.65;;;18.50;99.90;;;;;;4190365;28;20036;-70
2021/09/11 07:53:28;;;;;;;18.00;16.08;;;18.60;99.90;;;;;;4191364;28;20041;-69
2021/09/11 07:55:29;;;;;;;25.17;16.20;;;18.70;99.90;;;;;;4188343;28;20021;-69
2021/09/11 07:57:30;;;;;;;18.55;15.55;;;18.80;99.90;;;;;;4189488;28;20037;-70
2021/09/11 07:59:31;;;;;;;20.80;15.57;;;19.00;99.90;;;;;;4187729;28;20025;-71
2021/09/11 08:01:31;;;;;;;17.77;15.13;;;19.20;99.90;;;;;;4189453;28;20516;-70
2021/09/11 08:03:32;;;;;;;19.73;15.50;;;19.30;99.90;;;;;;4189524;28;20492;-69
2021/09/11 08:05:33;;;;;;;19.40;15.10;;;19.30;99.90;;;;;;4188850;28;20032;-70
2021/09/11 08:07:33;;;;;;;19.30;15.07;;;19.20;99.90;;;;;;4187967;28;20102;-69
2021/09/11 08:09:34;;;;;;;19.20;14.45;;;19.30;99.90;;;;;;4188479;28;20408;-70
2021/09/11 08:11:34;;;;;;;18.13;15.52;;;19.30;99.90;;;;;;4186502;28;20539;-70
2021/09/11 08:13:36;;;;;;;19.48;16.65;;;19.30;99.90;;;;;;4189170;28;20119;-69
2021/09/11 08:15:36;;;;;;;25.52;17.38;;;19.30;99.90;;;;;;4189866;28;20045;-70
2021/09/11 08:17:37;;;;;;;22.10;17.70;;;19.20;99.90;;;;;;4191644;28;20357;-70
2021/09/11 08:19:38;;;;;;;23.40;17.38;;;19.20;99.90;;;;;;4196048;28;20041;-69
2021/09/11 08:21:38;;;;;;;22.48;16.25;;;19.20;99.90;;;;;;4191997;28;20040;-69
2021/09/11 08:23:41;;;;;;;19.65;17.08;;;19.30;99.90;;;;;;4196760;28;20055;-69
2021/09/11 08:25:42;;;;;;;;;;;19.40;99.90;;;;;;4196380;28;20044;-70
2021/09/11 08:27:43;;;;;;;20.00;17.25;;;19.50;99.90;;;;;;4197189;28;19912;-70
2021/09/11 08:29:44;;;;;;;25.48;15.90;;;19.60;99.90;;;;;;4190573;28;20041;-70
2021/09/11 08:31:45;;;;;;;22.60;16.75;;;19.70;99.90;;;;;;4188069;28;20040;-68
2021/09/11 08:33:45;;;;;;;22.67;18.73;;;19.60;99.90;;;;;;4190465;28;20048;-70
2021/09/11 08:35:46;;;;;;;22.15;17.50;;;19.50;99.90;;;;;;4194446;28;20040;-70
2021/09/11 08:37:47;;;;;;;21.42;18.80;;;19.50;99.90;;;;;;4190071;28;20032;-70
2021/09/11 08:39:47;;;;;;;24.63;17.23;;;19.50;99.90;;;;;;4192371;28;20040;-70
2021/09/11 08:41:48;;;;;;;24.67;19.85;;;19.60;99.90;;;;;;4192646;28;20032;-69
2021/09/11 08:43:48;;;;;;;24.05;18.50;;;19.60;99.90;;;;;;4195049;28;20120;-70
2021/09/11 08:45:49;;;;;;;24.98;19.52;;;19.60;99.90;;;;;;4194163;28;20492;-71
2021/09/11 08:47:53;;;;;;;22.63;20.05;;;19.70;99.90;;;;;;4197139;28;20446;-71
2021/09/11 08:49:53;;;;;;;25.08;18.83;;;19.80;99.90;;;;;;4195917;28;20039;-69
2021/09/11 08:51:54;;;;;;;22.70;18.88;;;19.80;99.90;;;;;;4197014;28;20384;-70
2021/09/11 08:53:55;;;;;;;20.77;18.58;;;19.80;99.90;;;;;;4191193;28;20028;-70
2021/09/11 08:55:55;;;;;;;21.95;19.38;;;19.70;99.90;;;;;;4192563;28;20056;-69
2021/09/11 08:58:04;;;;;;;24.48;20.40;;;19.90;99.90;;;;;;4189073;28;20036;-70
2021/09/11 09:00:09;;;;;;;24.77;21.35;;;20.00;99.90;;;;;;4188324;28;20084;-70
2021/09/11 09:02:10;;;;;;;26.95;22.13;;;20.10;99.90;;;;;;4194797;28;20040;-70
2021/09/11 09:04:10;;;;;;;26.42;21.75;;;20.20;99.90;;;;;;4193456;28;20036;-70
2021/09/11 09:06:27;;;;;;;30.02;21.58;;;20.40;99.90;;;;;;4194285;28;20037;-70
2021/09/11 09:08:28;;;;;;;22.30;20.10;;;20.40;99.90;;;;;;4193286;28;20060;-69
2021/09/11 09:10:29;;;;;;;27.92;21.08;;;20.30;99.90;;;;;;4193921;28;20520;-70
2021/09/11 09:12:35;;;;;;;27.88;20.80;;;20.40;99.90;;;;;;4194530;28;20033;-70
2021/09/11 09:14:36;;;;;;;25.65;21.35;;;20.40;99.90;;;;;;4194878;28;20036;-70
2021/09/11 09:16:45;;;;;;;23.50;20.65;;;20.20;99.90;;;;;;4193782;28;20063;-70
2021/09/11 09:18:46;;;;;;;26.75;21.63;;;20.20;99.90;;;;;;4185488;28;20599;-70
2021/09/11 09:20:47;;;;;;;25.63;22.50;;;20.20;99.90;;;;;;4192023;28;20033;-70
2021/09/11 09:23:08;;;;;;;25.75;22.35;;;20.20;99.90;;;;;;4194492;28;20103;-70
2021/09/11 09:25:29;;;;;;;25.88;23.08;;;20.20;99.90;;;;;;4190038;28;20040;-70
2021/09/11 09:27:30;;;;;;;27.20;22.85;;;20.40;99.90;;;;;;4195800;28;20090;-70
2021/09/11 09:29:35;;;;;;;30.92;21.88;;;20.60;99.90;;;;;;4193251;28;20120;-70
2021/09/11 09:31:36;;;;;;;23.65;21.13;;;20.90;99.90;;;;;;4189226;28;20032;-70
2021/09/11 09:33:39;;;;;;;23.83;21.27;;;21.20;99.90;;;;;;4193101;28;20027;-70
2021/09/11 09:35:39;;;;;;;31.75;23.60;;;21.30;99.90;;;;;;4194342;28;20123;-71
2021/09/11 09:37:54;;;;;;;30.35;21.77;;;21.30;99.90;;;;;;4194303;28;20020;-69
2021/09/11 09:39:55;;;;;;;24.17;21.63;;;21.30;99.90;;;;;;4187442;28;20460;-70
2021/09/11 09:42:03;;;;;;;28.02;24.98;;;21.20;99.90;;;;;;4191730;28;20036;-70
2021/09/11 09:44:04;;;;;;;27.58;22.05;;;21.20;99.90;;;;;;4194920;28;20035;-70
2021/09/11 09:46:10;;;;;;;27.38;23.75;;;21.10;99.90;;;;;;4194645;28;20091;-70
2021/09/11 09:48:11;;;;;;;24.20;21.63;;;21.10;99.90;;;;;;4194930;28;20115;-71
2021/09/11 09:50:17;;;;;;;25.80;20.85;;;21.00;99.90;;;;;;4187931;28;20068;-69
2021/09/11 09:52:17;;;;;;;27.77;22.75;;;21.00;99.90;;;;;;4191834;28;20086;-70
2021/09/11 09:54:19;;;;;;;25.35;22.65;;;20.90;99.90;;;;;;4193186;28;20029;-70
2021/09/11 09:56:20;;;;;;;31.42;27.40;;;20.50;99.90;;;;;;4194506;28;20037;-71
2021/09/11 09:58:21;;;;;;;26.75;23.88;;;20.30;99.90;;;;;;4187259;28;20044;-70
2021/09/11 10:00:23;;;;;;;30.73;25.13;;;20.10;99.90;;;;;;4194604;28;20051;-70
2021/09/11 10:02:23;;;;;;;29.20;24.03;;;20.00;99.90;;;;;;4189822;28;20028;-71
2021/09/11 10:04:25;;;;;;;29.17;25.48;;;20.00;99.90;;;;;;4194578;28;20028;-70
2021/09/11 10:06:30;;;;;;;31.58;26.92;;;20.00;99.90;;;;;;4185989;28;20025;-71
2021/09/11 10:08:36;;;;;;;28.85;25.75;;;19.90;99.90;;;;;;4190966;28;20024;-70
2021/09/11 10:10:42;;;;;;;31.90;27.10;;;19.90;99.90;;;;;;4192667;28;20735;-70
2021/09/11 10:12:46;;;;;;;33.63;27.55;;;19.80;99.90;;;;;;4195570;28;20029;-70
2021/09/11 10:14:47;;;;;;;32.63;27.02;;;19.70;99.90;;;;;;4195221;28;20041;-70